createdAt,value
2018-04-02T00:00:38.469Z,20
2018-04-02T00:01:28.524Z,20.1
2018-04-02T00:02:18.076Z,20.1
2018-04-02T00:03:09.407Z,20.1
2018-04-02T00:03:58.996Z,20.1
2018-04-02T00:04:49.521Z,20.1
2018-04-02T00:05:38.699Z,20
2018-04-02T00:06:29.757Z,20.1
2018-04-02T00:07:18.436Z,20.1
2018-04-02T00:08:09.771Z,20
2018-04-02T00:08:59.666Z,20.1
2018-04-02T00:09:49.695Z,20.1
2018-04-02T00:10:40.348Z,20.1
2018-04-02T00:11:30.389Z,20.1
2018-04-02T00:12:19.515Z,20.1
2018-04-02T00:13:10.175Z,20.1
2018-04-02T00:14:00.296Z,20
2018-04-02T00:14:49.957Z,20.1
2018-04-02T00:15:40.352Z,20.1
2018-04-02T00:16:30.913Z,20.1
2018-04-02T00:17:20.528Z,20.1
2018-04-02T00:18:10.374Z,20.1
2018-04-02T00:19:00.080Z,20.1
2018-04-02T00:19:50.749Z,20.1
2018-04-02T00:20:40.421Z,20.1
2018-04-02T00:21:30.248Z,20.1
2018-04-02T00:22:21.023Z,20.1
2018-04-02T00:23:10.961Z,20.1
2018-04-02T00:24:01.007Z,20.1
2018-04-02T00:24:50.290Z,20.1
2018-04-02T00:25:40.877Z,20.1
2018-04-02T00:26:30.611Z,20.1
2018-04-02T00:27:20.683Z,20.1
2018-04-02T00:28:10.966Z,20.1
2018-04-02T00:29:01.073Z,20.1
2018-04-02T00:29:51.084Z,20.1
2018-04-02T00:30:41.010Z,20.1
2018-04-02T00:31:31.584Z,20.1
2018-04-02T00:32:21.058Z,20.1
2018-04-02T00:33:11.117Z,20.1
2018-04-02T00:34:01.659Z,20.1
2018-04-02T00:34:51.242Z,20.1
2018-04-02T00:35:42.044Z,20.1
2018-04-02T00:36:32.107Z,20.1
2018-04-02T00:37:22.444Z,20.1
2018-04-02T00:38:12.504Z,20.1
2018-04-02T00:39:02.869Z,20.1
2018-04-02T00:39:52.669Z,20.1
2018-04-02T00:40:42.128Z,20.1
2018-04-02T00:41:31.696Z,20.1
2018-04-02T00:42:21.822Z,20.1
2018-04-02T00:43:12.424Z,20.1
2018-04-02T00:44:02.486Z,20.1
2018-04-02T00:44:52.523Z,20.1
2018-04-02T00:45:42.394Z,20.1
2018-04-02T00:46:32.979Z,20.1
2018-04-02T00:47:23.476Z,20.1
2018-04-02T00:48:13.263Z,20.1
2018-04-02T00:49:03.340Z,20.1
2018-04-02T00:49:53.073Z,20.1
2018-04-02T00:50:43.488Z,20.1
2018-04-02T00:51:32.925Z,20.1
2018-04-02T00:52:23.245Z,20.1
2018-04-02T00:53:13.657Z,20.1
2018-04-02T00:54:03.971Z,20.1
2018-04-02T00:54:54.002Z,20.1
2018-04-02T00:55:43.260Z,20.1
2018-04-02T00:56:34.108Z,20.1
2018-04-02T00:57:22.714Z,20.1
2018-04-02T00:58:13.590Z,20.1
2018-04-02T00:59:03.505Z,20.1
2018-04-02T00:59:53.626Z,20.1
2018-04-02T01:00:43.110Z,20.1
2018-04-02T01:01:33.633Z,20.1
2018-04-02T01:02:23.700Z,20.1
2018-04-02T01:03:13.211Z,20.1
2018-04-02T01:04:02.858Z,20.1
2018-04-02T01:04:53.890Z,20.1
2018-04-02T01:05:43.637Z,20.1
2018-04-02T01:06:33.819Z,20.1
2018-04-02T01:07:23.448Z,20.1
2018-04-02T01:08:14.416Z,20.1
2018-04-02T01:09:03.716Z,20.2
2018-04-02T01:09:54.184Z,20.1
2018-04-02T01:10:44.524Z,20.1
2018-04-02T01:11:34.007Z,20.1
2018-04-02T01:12:24.806Z,20.2
2018-04-02T01:13:14.072Z,20.2
2018-04-02T01:14:04.366Z,20.2
2018-04-02T01:14:54.722Z,20.2
2018-04-02T01:15:45.260Z,20.2
2018-04-02T01:16:34.253Z,20.2
2018-04-02T01:17:24.536Z,20.2
2018-04-02T01:18:15.164Z,20.2
2018-04-02T01:19:04.725Z,20.2
2018-04-02T01:19:54.882Z,20.2
2018-04-02T01:20:44.314Z,20.2
2018-04-02T01:21:34.829Z,20.2
2018-04-02T01:22:25.209Z,20.2
2018-04-02T01:23:14.452Z,20.2
2018-04-02T01:24:04.409Z,20.2
2018-04-02T01:24:55.261Z,20.2
2018-04-02T01:25:45.431Z,20.2
2018-04-02T01:26:35.062Z,20.2
2018-04-02T01:27:25.257Z,20.2
2018-04-02T01:28:14.912Z,20.2
2018-04-02T01:29:05.104Z,20.2
2018-04-02T01:29:55.411Z,20.2
2018-04-02T01:30:46.154Z,20.2
2018-04-02T01:31:35.219Z,20.2
2018-04-02T01:32:25.936Z,20.2
2018-04-02T01:33:15.251Z,20.3
2018-04-02T01:34:05.340Z,20.2
2018-04-02T01:34:56.364Z,20.2
2018-04-02T01:35:45.882Z,20.2
2018-04-02T01:36:36.249Z,20.2
2018-04-02T01:37:26.068Z,20.2
2018-04-02T01:38:15.773Z,20.2
2018-04-02T01:39:06.177Z,20.3
2018-04-02T01:39:56.145Z,20.2
2018-04-02T01:40:46.365Z,20.2
2018-04-02T01:41:36.715Z,20.2
2018-04-02T01:42:26.893Z,20.3
2018-04-02T01:43:16.166Z,20.2
2018-04-02T01:44:06.263Z,20.3
2018-04-02T01:44:56.314Z,20.3
2018-04-02T01:45:46.283Z,20.2
2018-04-02T01:46:36.733Z,20.2
2018-04-02T01:47:26.331Z,20.2
2018-04-02T01:48:17.323Z,20.3
2018-04-02T01:49:07.683Z,20.3
2018-04-02T01:49:58.001Z,20.3
2018-04-02T01:50:48.151Z,20.3
2018-04-02T01:51:37.599Z,20.3
2018-04-02T01:52:27.907Z,20.3
2018-04-02T01:53:17.411Z,20.3
2018-04-02T01:54:07.810Z,20.3
2018-04-02T01:54:57.370Z,20.3
2018-04-02T01:55:47.625Z,20.3
2018-04-02T01:56:37.970Z,20.2
2018-04-02T01:57:26.460Z,20.3
2018-04-02T01:58:18.088Z,20.3
2018-04-02T01:59:06.471Z,20.3
2018-04-02T01:59:57.817Z,20.3
2018-04-02T02:00:47.077Z,20.3
2018-04-02T02:01:37.857Z,20.3
2018-04-02T02:02:27.989Z,20.3
2018-04-02T02:03:18.131Z,20.3
2018-04-02T02:04:07.437Z,20.3
2018-04-02T02:04:58.029Z,20.3
2018-04-02T02:05:47.659Z,20.3
2018-04-02T02:06:38.804Z,20.3
2018-04-02T02:07:27.766Z,20.3
2018-04-02T02:08:18.506Z,20.3
2018-04-02T02:09:08.171Z,20.3
2018-04-02T02:09:57.741Z,20.3
2018-04-02T02:10:48.986Z,20.3
2018-04-02T02:11:37.788Z,20.3
2018-04-02T02:12:28.666Z,20.3
2018-04-02T02:13:18.490Z,20.3
2018-04-02T02:14:08.068Z,20.3
2018-04-02T02:14:57.939Z,20.3
2018-04-02T02:15:48.468Z,20.3
2018-04-02T02:16:38.351Z,20.3
2018-04-02T02:17:28.392Z,20.3
2018-04-02T02:18:17.994Z,20.3
2018-04-02T02:19:08.448Z,20.3
2018-04-02T02:19:58.965Z,20.3
2018-04-02T02:20:49.426Z,20.3
2018-04-02T02:21:39.176Z,20.3
2018-04-02T02:22:29.463Z,20.3
2018-04-02T02:23:19.424Z,20.3
2018-04-02T02:24:08.796Z,20.3
2018-04-02T02:25:00.046Z,20.3
2018-04-02T02:25:49.799Z,20.3
2018-04-02T02:26:39.391Z,20.3
2018-04-02T02:27:29.080Z,20.3
2018-04-02T02:28:19.761Z,20.3
2018-04-02T02:29:08.874Z,20.3
2018-04-02T02:29:59.122Z,20.3
2018-04-02T02:30:49.784Z,20.3
2018-04-02T02:31:39.957Z,20.3
2018-04-02T02:32:30.078Z,20.3
2018-04-02T02:33:20.225Z,20.3
2018-04-02T02:34:10.231Z,20.3
2018-04-02T02:34:59.831Z,20.3
2018-04-02T02:35:49.664Z,20.3
2018-04-02T02:36:39.838Z,20.3
2018-04-02T02:37:30.744Z,20.3
2018-04-02T02:38:21.296Z,20.3
2018-04-02T02:39:09.992Z,20.3
2018-04-02T02:40:01.278Z,20.3
2018-04-02T02:40:50.624Z,20.3
2018-04-02T02:41:40.868Z,20.3
2018-04-02T02:42:30.732Z,20.3
2018-04-02T02:43:20.590Z,20.3
2018-04-02T02:44:10.628Z,20.3
2018-04-02T02:45:01.321Z,20.3
2018-04-02T02:45:50.950Z,20.3
2018-04-02T02:46:40.741Z,20.3
2018-04-02T02:47:32.253Z,20.3
2018-04-02T02:48:21.134Z,20.3
2018-04-02T02:49:11.043Z,20.3
2018-04-02T02:50:01.443Z,20.3
2018-04-02T02:50:52.498Z,20.3
2018-04-02T02:51:41.964Z,20.3
2018-04-02T02:52:32.640Z,20.3
2018-04-02T02:53:21.791Z,20.3
2018-04-02T02:54:12.731Z,20.3
2018-04-02T02:55:01.928Z,20.3
2018-04-02T02:55:52.550Z,20.3
2018-04-02T02:56:42.868Z,20.3
2018-04-02T02:57:32.943Z,20.3
2018-04-02T02:58:22.151Z,20.3
2018-04-02T02:59:12.798Z,20.3
2018-04-02T03:00:02.592Z,20.3
2018-04-02T03:00:53.187Z,20.3
2018-04-02T03:01:43.275Z,20.3
2018-04-02T03:02:32.817Z,20.3
2018-04-02T03:03:23.726Z,20.3
2018-04-02T03:04:12.854Z,20.3
2018-04-02T03:05:02.422Z,20.3
2018-04-02T03:05:52.049Z,20.3
2018-04-02T03:06:42.810Z,20.4
2018-04-02T03:07:33.217Z,20.3
2018-04-02T03:08:22.519Z,20.3
2018-04-02T03:09:12.908Z,20.3
2018-04-02T03:10:03.110Z,20.3
2018-04-02T03:10:51.305Z,20.3
2018-04-02T03:11:42.458Z,20.4
2018-04-02T03:12:32.428Z,20.4
2018-04-02T03:13:23.273Z,20.3
2018-04-02T03:14:12.727Z,20.4
2018-04-02T03:15:03.203Z,20.4
2018-04-02T03:15:53.363Z,20.4
2018-04-02T03:16:43.405Z,20.4
2018-04-02T03:17:32.760Z,20.4
2018-04-02T03:18:22.950Z,20.4
2018-04-02T03:19:12.842Z,20.4
2018-04-02T03:20:03.362Z,20.4
2018-04-02T03:20:53.029Z,20.4
2018-04-02T03:21:42.974Z,20.4
2018-04-02T03:22:34.070Z,20.4
2018-04-02T03:23:23.642Z,20.4
2018-04-02T03:24:14.611Z,20.4
2018-04-02T03:25:03.995Z,20.4
2018-04-02T03:25:53.847Z,20.4
2018-04-02T03:26:44.330Z,20.3
2018-04-02T03:27:34.361Z,20.4
2018-04-02T03:28:23.882Z,20.4
2018-04-02T03:29:14.010Z,20.4
2018-04-02T03:30:03.348Z,20.4
2018-04-02T03:30:53.899Z,20.4
2018-04-02T03:31:44.349Z,20.4
2018-04-02T03:32:34.377Z,20.4
2018-04-02T03:33:23.950Z,20.4
2018-04-02T03:34:13.929Z,20.4
2018-04-02T03:35:05.148Z,20.4
2018-04-02T03:35:54.941Z,20.4
2018-04-02T03:36:45.353Z,20.4
2018-04-02T03:37:34.710Z,20.4
2018-04-02T03:38:24.185Z,20.4
2018-04-02T03:39:14.813Z,20.4
2018-04-02T03:40:05.809Z,20.4
2018-04-02T03:40:55.086Z,20.4
2018-04-02T03:41:44.726Z,20.4
2018-04-02T03:42:34.695Z,20.4
2018-04-02T03:43:25.448Z,20.4
2018-04-02T03:44:15.533Z,20.4
2018-04-02T03:45:05.348Z,20.4
2018-04-02T03:45:54.777Z,20.4
2018-04-02T03:46:44.881Z,20.4
2018-04-02T03:47:35.448Z,20.4
2018-04-02T03:48:26.351Z,20.4
2018-04-02T03:49:15.853Z,20.4
2018-04-02T03:50:06.200Z,20.4
2018-04-02T03:50:56.250Z,20.4
2018-04-02T03:51:46.048Z,20.4
2018-04-02T03:52:36.668Z,20.4
2018-04-02T03:53:26.428Z,20.4
2018-04-02T03:54:16.792Z,20.4
2018-04-02T03:55:06.590Z,20.4
2018-04-02T03:55:56.632Z,20.4
2018-04-02T03:56:46.970Z,20.4
2018-04-02T03:57:37.330Z,20.4
2018-04-02T03:58:27.132Z,20.4
2018-04-02T03:59:16.300Z,20.4
2018-04-02T04:00:07.505Z,20.4
2018-04-02T04:00:56.698Z,20.4
2018-04-02T04:01:47.667Z,20.4
2018-04-02T04:02:37.130Z,20.4
2018-04-02T04:03:27.465Z,20.4
2018-04-02T04:04:17.226Z,20.4
2018-04-02T04:05:07.329Z,20.4
2018-04-02T04:05:56.770Z,20.4
2018-04-02T04:06:47.967Z,20.4
2018-04-02T04:07:36.914Z,20.4
2018-04-02T04:08:26.580Z,20.4
2018-04-02T04:09:16.431Z,20.4
2018-04-02T04:10:07.457Z,20.4
2018-04-02T04:10:57.334Z,20.4
2018-04-02T04:11:47.224Z,20.4
2018-04-02T04:12:37.876Z,20.4
2018-04-02T04:13:27.332Z,20.4
2018-04-02T04:14:17.994Z,20.4
2018-04-02T04:15:07.456Z,20.4
2018-04-02T04:15:57.424Z,20.4
2018-04-02T04:16:47.649Z,20.4
2018-04-02T04:17:38.225Z,20.4
2018-04-02T04:18:28.270Z,20.4
2018-04-02T04:19:18.040Z,20.4
2018-04-02T04:20:07.619Z,20.4
2018-04-02T04:20:57.304Z,20.4
2018-04-02T04:21:47.453Z,20.3
2018-04-02T04:22:37.514Z,20.4
2018-04-02T04:23:27.773Z,20.4
2018-04-02T04:24:17.738Z,20.4
2018-04-02T04:25:07.665Z,20.4
2018-04-02T04:25:57.565Z,20.4
2018-04-02T04:26:48.318Z,20.4
2018-04-02T04:27:39.010Z,20.4
2018-04-02T04:28:28.122Z,20.4
2018-04-02T04:29:18.296Z,20.4
2018-04-02T04:30:08.823Z,20.4
2018-04-02T04:30:58.695Z,20.4
2018-04-02T04:31:49.135Z,20.4
2018-04-02T04:32:38.947Z,20.4
2018-04-02T04:33:28.482Z,20.4
2018-04-02T04:34:18.717Z,20.4
2018-04-02T04:35:08.309Z,20.4
2018-04-02T04:35:59.187Z,20.4
2018-04-02T04:36:48.992Z,20.4
2018-04-02T04:37:38.387Z,20.4
2018-04-02T04:38:29.057Z,20.3
2018-04-02T04:39:18.992Z,20.3
2018-04-02T04:40:09.287Z,20.3
2018-04-02T04:40:59.237Z,20.3
2018-04-02T04:41:49.109Z,20.3
2018-04-02T04:42:39.530Z,20.3
2018-04-02T04:43:29.028Z,20.3
2018-04-02T04:44:19.437Z,20.3
2018-04-02T04:45:09.060Z,20.3
2018-04-02T04:46:00.074Z,20.3
2018-04-02T04:46:48.960Z,20.3
2018-04-02T04:47:39.726Z,20.3
2018-04-02T04:48:29.767Z,20.3
2018-04-02T04:49:20.257Z,20.3
2018-04-02T04:50:09.787Z,20.3
2018-04-02T04:51:00.028Z,20.3
2018-04-02T04:51:50.469Z,20.3
2018-04-02T04:52:40.352Z,20.3
2018-04-02T04:53:30.644Z,20.3
2018-04-02T04:54:20.078Z,20.3
2018-04-02T04:55:10.267Z,20.3
2018-04-02T04:56:00.726Z,20.3
2018-04-02T04:56:50.376Z,20.3
2018-04-02T04:57:40.457Z,20.3
2018-04-02T04:58:29.897Z,20.3
2018-04-02T04:59:20.901Z,20.3
2018-04-02T05:00:10.916Z,20.3
2018-04-02T05:01:00.785Z,20.3
2018-04-02T05:01:51.141Z,20.3
2018-04-02T05:02:40.588Z,20.3
2018-04-02T05:03:30.971Z,20.3
2018-04-02T05:04:20.844Z,20.3
2018-04-02T05:05:11.660Z,20.3
2018-04-02T05:06:01.292Z,20.3
2018-04-02T05:06:51.477Z,20.3
2018-04-02T05:07:42.154Z,20.3
2018-04-02T05:08:30.838Z,20.3
2018-04-02T05:09:22.230Z,20.3
2018-04-02T05:10:11.835Z,20.3
2018-04-02T05:11:01.008Z,20.3
2018-04-02T05:11:51.062Z,20.3
2018-04-02T05:12:42.349Z,20.3
2018-04-02T05:13:31.170Z,20.3
2018-04-02T05:14:22.160Z,20.3
2018-04-02T05:15:10.702Z,20.3
2018-04-02T05:16:01.738Z,20.3
2018-04-02T05:16:51.845Z,20.3
2018-04-02T05:17:41.777Z,20.3
2018-04-02T05:18:32.363Z,20.3
2018-04-02T05:19:22.200Z,20.3
2018-04-02T05:20:12.970Z,20.3
2018-04-02T05:21:02.519Z,20.3
2018-04-02T05:21:52.582Z,20.3
2018-04-02T05:22:42.100Z,20.3
2018-04-02T05:23:32.007Z,20.3
2018-04-02T05:24:22.582Z,20.3
2018-04-02T05:25:12.619Z,20.3
2018-04-02T05:26:01.868Z,20.3
2018-04-02T05:26:52.637Z,20.3
2018-04-02T05:27:43.809Z,20.3
2018-04-02T05:28:33.357Z,20.3
2018-04-02T05:29:23.672Z,20.3
2018-04-02T05:30:14.025Z,20.3
2018-04-02T05:31:03.754Z,20.3
2018-04-02T05:31:53.875Z,20.3
2018-04-02T05:32:43.656Z,20.3
2018-04-02T05:33:33.716Z,20.3
2018-04-02T05:34:24.365Z,20.3
2018-04-02T05:35:14.101Z,20.3
2018-04-02T05:36:04.194Z,20.3
2018-04-02T05:36:54.531Z,20.3
2018-04-02T05:37:43.165Z,20.3
2018-04-02T05:38:34.362Z,20.3
2018-04-02T05:39:23.349Z,20.3
2018-04-02T05:40:13.803Z,20.3
2018-04-02T05:41:03.079Z,20.3
2018-04-02T05:41:53.184Z,20.3
2018-04-02T05:42:43.676Z,20.3
2018-04-02T05:43:34.143Z,20.4
2018-04-02T05:44:24.786Z,20.4
2018-04-02T05:45:13.807Z,20.4
2018-04-02T05:46:04.252Z,20.4
2018-04-02T05:46:54.213Z,20.3
2018-04-02T05:47:43.375Z,20.3
2018-04-02T05:48:33.820Z,20.3
2018-04-02T05:49:24.257Z,20.3
2018-04-02T05:50:14.332Z,20.3
2018-04-02T05:51:03.961Z,20.3
2018-04-02T05:51:54.919Z,20.3
2018-04-02T05:52:43.804Z,20.3
2018-04-02T05:53:34.571Z,20.3
2018-04-02T05:54:24.412Z,20.3
2018-04-02T05:55:14.393Z,20.3
2018-04-02T05:56:04.380Z,20.3
2018-04-02T05:56:55.239Z,20.3
2018-04-02T05:57:44.386Z,20.3
2018-04-02T05:58:34.854Z,20.3
2018-04-02T05:59:25.871Z,20.3
2018-04-02T06:00:14.675Z,20.3
2018-04-02T06:01:04.629Z,20.3
2018-04-02T06:01:55.579Z,20.3
2018-04-02T06:02:45.439Z,20.3
2018-04-02T06:03:34.986Z,20.3
2018-04-02T06:04:25.851Z,20.3
2018-04-02T06:05:15.607Z,20.3
2018-04-02T06:06:05.309Z,20.3
2018-04-02T06:06:55.912Z,20.3
2018-04-02T06:07:45.479Z,20.3
2018-04-02T06:08:35.185Z,20.3
2018-04-02T06:09:25.245Z,20.3
2018-04-02T06:10:15.576Z,20.2
2018-04-02T06:11:06.128Z,20.3
2018-04-02T06:11:55.503Z,20.2
2018-04-02T06:12:45.481Z,20.2
2018-04-02T06:13:36.037Z,20.2
2018-04-02T06:14:26.285Z,20.2
2018-04-02T06:15:16.341Z,20.3
2018-04-02T06:16:05.927Z,20.2
2018-04-02T06:16:56.404Z,20.3
2018-04-02T06:17:46.130Z,20.3
2018-04-02T06:18:36.785Z,20.3
2018-04-02T06:19:26.306Z,20.3
2018-04-02T06:20:15.497Z,20.3
2018-04-02T06:21:06.652Z,20.3
2018-04-02T06:21:56.913Z,20.3
2018-04-02T06:22:46.289Z,20.3
2018-04-02T06:23:36.737Z,20.3
2018-04-02T06:24:27.687Z,20.3
2018-04-02T06:25:17.592Z,20.3
2018-04-02T06:26:06.475Z,20.3
2018-04-02T06:26:56.683Z,20.3
2018-04-02T06:27:47.245Z,20.3
2018-04-02T06:28:37.590Z,20.3
2018-04-02T06:29:27.074Z,20.3
2018-04-02T06:30:17.020Z,20.3
2018-04-02T06:31:08.069Z,20.3
2018-04-02T06:31:57.250Z,20.3
2018-04-02T06:32:46.519Z,20.3
2018-04-02T06:33:37.361Z,20.3
2018-04-02T06:34:27.622Z,20.3
2018-04-02T06:35:17.421Z,20.3
2018-04-02T06:36:07.345Z,20.3
2018-04-02T06:36:57.922Z,20.3
2018-04-02T06:37:48.442Z,20.3
2018-04-02T06:38:37.627Z,20.3
2018-04-02T06:39:27.417Z,20.3
2018-04-02T06:40:17.942Z,20.3
2018-04-02T06:41:07.114Z,20.3
2018-04-02T06:41:58.181Z,20.3
2018-04-02T06:42:48.277Z,20.3
2018-04-02T06:43:37.934Z,20.3
2018-04-02T06:44:28.564Z,20.3
2018-04-02T06:45:18.184Z,20.3
2018-04-02T06:46:08.754Z,20.3
2018-04-02T06:46:58.736Z,20.3
2018-04-02T06:47:48.304Z,20.3
2018-04-02T06:48:39.244Z,20.3
2018-04-02T06:49:28.902Z,20.3
2018-04-02T06:50:19.062Z,20.3
2018-04-02T06:51:08.750Z,20.3
2018-04-02T06:51:59.188Z,20.3
2018-04-02T06:52:49.281Z,20.3
2018-04-02T06:53:38.516Z,20.3
2018-04-02T06:54:29.472Z,20.3
2018-04-02T06:55:19.597Z,20.2
2018-04-02T06:56:09.100Z,20.2
2018-04-02T06:56:59.261Z,20.3
2018-04-02T06:57:49.512Z,20.2
2018-04-02T06:58:39.165Z,20.3
2018-04-02T06:59:29.456Z,20.3
2018-04-02T07:00:19.198Z,20.2
2018-04-02T07:01:09.345Z,20.3
2018-04-02T07:01:59.523Z,20.2
2018-04-02T07:02:49.538Z,20.2
2018-04-02T07:03:38.617Z,20.3
2018-04-02T07:04:29.950Z,20.2
2018-04-02T07:05:20.303Z,20.3
2018-04-02T07:06:09.902Z,20.2
2018-04-02T07:06:59.573Z,20.2
2018-04-02T07:07:49.975Z,20.3
2018-04-02T07:08:39.321Z,20.3
2018-04-02T07:09:29.841Z,20.2
2018-04-02T07:10:21.075Z,20.3
2018-04-02T07:11:09.577Z,20.3
2018-04-02T07:12:00.425Z,20.2
2018-04-02T07:12:49.984Z,20.2
2018-04-02T07:13:39.649Z,20.2
2018-04-02T07:14:30.587Z,20.2
2018-04-02T07:15:21.070Z,20.2
2018-04-02T07:16:10.242Z,20.2
2018-04-02T07:16:59.924Z,20.3
2018-04-02T07:17:51.346Z,20.2
2018-04-02T07:18:40.689Z,20.2
2018-04-02T07:19:30.652Z,20.2
2018-04-02T07:20:20.436Z,20.2
2018-04-02T07:21:10.514Z,20.2
2018-04-02T07:22:00.361Z,20.2
2018-04-02T07:22:50.508Z,20.2
2018-04-02T07:23:41.526Z,20.2
2018-04-02T07:24:31.318Z,20.2
2018-04-02T07:25:21.502Z,20.2
2018-04-02T07:26:10.739Z,20.2
2018-04-02T07:27:01.394Z,20.2
2018-04-02T07:27:50.500Z,20.2
2018-04-02T07:28:41.822Z,20.1
2018-04-02T07:29:31.592Z,20.1
2018-04-02T07:30:20.393Z,20.1
2018-04-02T07:31:11.418Z,20.1
2018-04-02T07:32:01.734Z,20.1
2018-04-02T07:32:52.214Z,20.1
2018-04-02T07:33:41.358Z,20.1
2018-04-02T07:34:31.642Z,20.1
2018-04-02T07:35:21.626Z,20.1
2018-04-02T07:36:12.094Z,20.1
2018-04-02T07:37:01.829Z,20.1
2018-04-02T07:37:51.809Z,20.1
2018-04-02T07:38:43.023Z,20.1
2018-04-02T07:39:32.896Z,20.1
2018-04-02T07:40:21.974Z,20.1
2018-04-02T07:41:11.537Z,20.1
2018-04-02T07:42:02.572Z,19.9
2018-04-02T07:42:52.497Z,20.8
2018-04-02T07:43:42.586Z,20.9
2018-04-02T07:44:32.878Z,23.5
2018-04-02T07:45:23.423Z,25.1
2018-04-02T07:46:12.301Z,25.3
2018-04-02T07:47:02.948Z,24.4
2018-04-02T07:47:52.692Z,23.8
2018-04-02T07:48:43.468Z,23.8
2018-04-02T07:49:33.313Z,24.4
2018-04-02T07:50:23.622Z,25.1
2018-04-02T07:51:13.054Z,25.6
2018-04-02T07:52:02.894Z,25.8
2018-04-02T07:52:52.953Z,25.8
2018-04-02T07:53:43.107Z,25.7
2018-04-02T07:54:33.860Z,25.6
2018-04-02T07:55:23.349Z,25.6
2018-04-02T07:56:13.143Z,25.9
2018-04-02T07:57:03.787Z,26.3
2018-04-02T07:57:53.300Z,26.9
2018-04-02T07:58:43.193Z,27.1
2018-04-02T07:59:33.763Z,27.1
2018-04-02T08:00:23.777Z,27.1
2018-04-02T08:01:13.585Z,26.9
2018-04-02T08:02:04.650Z,26.9
2018-04-02T08:02:54.438Z,27.1
2018-04-02T08:03:44.430Z,27.6
2018-04-02T08:04:33.712Z,28.1
2018-04-02T08:05:23.863Z,28.4
2018-04-02T08:06:13.992Z,28.4
2018-04-02T08:07:04.100Z,28.3
2018-04-02T08:07:54.124Z,28.3
2018-04-02T08:08:44.861Z,28.3
2018-04-02T08:09:34.344Z,28.3
2018-04-02T08:10:24.301Z,28.3
2018-04-02T08:11:15.501Z,28.5
2018-04-02T08:12:04.409Z,28.8
2018-04-02T08:12:54.217Z,29.2
2018-04-02T08:13:44.309Z,29.6
2018-04-02T08:14:34.804Z,29.8
2018-04-02T08:15:24.781Z,29.9
2018-04-02T08:16:15.131Z,29.6
2018-04-02T08:17:04.048Z,29.5
2018-04-02T08:17:56.037Z,29.6
2018-04-02T08:18:44.808Z,30.1
2018-04-02T08:19:35.121Z,30.6
2018-04-02T08:20:25.719Z,31.2
2018-04-02T08:21:15.610Z,31.6
2018-04-02T08:22:05.534Z,31.7
2018-04-02T08:22:55.983Z,31.8
2018-04-02T08:23:45.293Z,31.8
2018-04-02T08:24:35.543Z,31.9
2018-04-02T08:25:25.634Z,31.9
2018-04-02T08:26:15.703Z,32.2
2018-04-02T08:27:05.730Z,32.4
2018-04-02T08:27:55.300Z,32.4
2018-04-02T08:28:45.128Z,32.3
2018-04-02T08:29:36.123Z,32.1
2018-04-02T08:30:25.595Z,31.8
2018-04-02T08:31:16.137Z,31.6
2018-04-02T08:32:05.973Z,31.5
2018-04-02T08:32:56.714Z,31.5
2018-04-02T08:33:46.804Z,31.4
2018-04-02T08:34:35.287Z,31.4
2018-04-02T08:35:26.244Z,31.3
2018-04-02T08:36:16.616Z,31.1
2018-04-02T08:37:06.518Z,31
2018-04-02T08:37:57.054Z,30.9
2018-04-02T08:38:46.621Z,30.9
2018-04-02T08:39:36.468Z,30.8
2018-04-02T08:40:27.006Z,30.8
2018-04-02T08:41:16.789Z,30.9
2018-04-02T08:42:06.619Z,30.9
2018-04-02T08:42:56.714Z,31
2018-04-02T08:43:46.551Z,31
2018-04-02T08:44:36.306Z,31.3
2018-04-02T08:45:27.449Z,31.9
2018-04-02T08:46:17.931Z,32.8
2018-04-02T08:47:06.861Z,33.3
2018-04-02T08:47:57.254Z,33.6
2018-04-02T08:48:47.601Z,33.5
2018-04-02T08:49:37.378Z,33.3
2018-04-02T08:50:27.333Z,33.2
2018-04-02T08:51:17.650Z,33.1
2018-04-02T08:52:06.568Z,33.2
2018-04-02T08:52:57.776Z,33.2
2018-04-02T08:53:47.376Z,33.3
2018-04-02T08:54:36.763Z,33.4
2018-04-02T08:55:27.708Z,33.6
2018-04-02T08:56:17.884Z,33.7
2018-04-02T08:57:08.710Z,33.8
2018-04-02T08:57:58.215Z,33.8
2018-04-02T08:58:47.942Z,34.1
2018-04-02T08:59:38.626Z,34.6
2018-04-02T09:00:27.705Z,35
2018-04-02T09:01:18.425Z,35.2
2018-04-02T09:02:08.075Z,35.1
2018-04-02T09:02:57.868Z,34.8
2018-04-02T09:03:48.210Z,34.9
2018-04-02T09:04:38.467Z,35.2
2018-04-02T09:05:28.762Z,35.7
2018-04-02T09:06:18.626Z,36.3
2018-04-02T09:07:08.894Z,36.6
2018-04-02T09:07:59.209Z,36.9
2018-04-02T09:08:48.982Z,37.2
2018-04-02T09:09:38.147Z,37.4
2018-04-02T09:10:28.813Z,37.6
2018-04-02T09:11:18.468Z,37.8
2018-04-02T09:12:09.247Z,38.1
2018-04-02T09:12:59.393Z,38.3
2018-04-02T09:13:49.342Z,38.5
2018-04-02T09:14:38.137Z,38.8
2018-04-02T09:15:29.838Z,39
2018-04-02T09:16:19.559Z,39.2
2018-04-02T09:17:08.902Z,39.4
2018-04-02T09:17:59.470Z,39.6
2018-04-02T09:18:49.306Z,39.7
2018-04-02T09:19:39.687Z,39.8
2018-04-02T09:20:29.935Z,39.6
2018-04-02T09:21:19.973Z,39.3
2018-04-02T09:22:09.687Z,39.1
2018-04-02T09:22:59.646Z,39.2
2018-04-02T09:23:50.164Z,39.3
2018-04-02T09:24:39.634Z,39.4
2018-04-02T09:25:29.556Z,39.8
2018-04-02T09:26:21.190Z,40
2018-04-02T09:27:09.436Z,40.1
2018-04-02T09:27:58.349Z,39.9
2018-04-02T09:28:49.170Z,39.6
2018-04-02T09:29:40.037Z,39.3
2018-04-02T09:30:29.769Z,39.1
2018-04-02T09:31:20.461Z,39.1
2018-04-02T09:32:10.019Z,39.1
2018-04-02T09:33:00.582Z,39.1
2018-04-02T09:33:50.605Z,39.1
2018-04-02T09:34:41.293Z,38.9
2018-04-02T09:35:30.355Z,38.7
2018-04-02T09:36:21.078Z,38.6
2018-04-02T09:37:10.881Z,38.3
2018-04-02T09:38:00.905Z,38.3
2018-04-02T09:38:51.470Z,38.1
2018-04-02T09:39:41.043Z,38
2018-04-02T09:40:31.003Z,37.9
2018-04-02T09:41:20.687Z,37.8
2018-04-02T09:42:12.062Z,37.7
2018-04-02T09:43:02.076Z,37.6
2018-04-02T09:43:52.418Z,37.6
2018-04-02T09:44:42.216Z,37.6
2018-04-02T09:45:31.746Z,38.1
2018-04-02T09:46:21.997Z,38.8
2018-04-02T09:47:12.650Z,39.5
2018-04-02T09:48:02.739Z,40.1
2018-04-02T09:48:52.782Z,40.6
2018-04-02T09:49:42.575Z,40.9
2018-04-02T09:50:32.604Z,41.2
2018-04-02T09:51:22.685Z,41.2
2018-04-02T09:52:13.016Z,41
2018-04-02T09:53:02.787Z,40.7
2018-04-02T09:53:52.871Z,40.4
2018-04-02T09:54:43.202Z,40.2
2018-04-02T09:55:32.696Z,40.1
2018-04-02T09:56:23.044Z,39.9
2018-04-02T09:57:13.384Z,39.8
2018-04-02T09:58:03.452Z,39.6
2018-04-02T09:58:53.506Z,39.4
2018-04-02T09:59:43.054Z,39.3
2018-04-02T10:00:33.651Z,39.2
2018-04-02T10:01:23.666Z,39.1
2018-04-02T10:02:13.472Z,39
2018-04-02T10:03:02.954Z,38.9
2018-04-02T10:03:53.284Z,38.7
2018-04-02T10:04:45.613Z,38.5
2018-04-02T10:05:33.683Z,38.4
2018-04-02T10:06:24.656Z,38.4
2018-04-02T10:07:13.844Z,38.4
2018-04-02T10:08:03.914Z,38.4
2018-04-02T10:08:53.946Z,38.4
2018-04-02T10:09:43.486Z,38.3
2018-04-02T10:10:33.764Z,38.1
2018-04-02T10:11:24.408Z,38.1
2018-04-02T10:12:14.189Z,38
2018-04-02T10:13:04.271Z,37.9
2018-04-02T10:13:54.375Z,37.9
2018-04-02T10:14:44.430Z,37.9
2018-04-02T10:15:34.339Z,38.1
2018-04-02T10:16:24.546Z,38.4
2018-04-02T10:17:14.562Z,39
2018-04-02T10:18:04.663Z,39.7
2018-04-02T10:18:54.680Z,40.1
2018-04-02T10:19:44.185Z,40
2018-04-02T10:20:34.152Z,39.8
2018-04-02T10:21:24.391Z,39.6
2018-04-02T10:22:14.130Z,39.6
2018-04-02T10:23:04.685Z,39.6
2018-04-02T10:23:54.998Z,39.5
2018-04-02T10:24:44.647Z,39.5
2018-04-02T10:25:34.357Z,39.6
2018-04-02T10:26:24.420Z,39.6
2018-04-02T10:27:14.082Z,39.5
2018-04-02T10:28:04.653Z,39.4
2018-04-02T10:28:54.379Z,39.4
2018-04-02T10:29:45.058Z,39.3
2018-04-02T10:30:33.716Z,39.3
2018-04-02T10:31:25.379Z,39.3
2018-04-02T10:32:14.446Z,39.6
2018-04-02T10:33:05.053Z,40.1
2018-04-02T10:33:55.240Z,40.7
2018-04-02T10:34:45.382Z,40.9
2018-04-02T10:35:34.553Z,40.8
2018-04-02T10:36:23.857Z,40.5
2018-04-02T10:37:15.052Z,40.3
2018-04-02T10:38:04.955Z,40
2018-04-02T10:38:55.127Z,39.9
2018-04-02T10:39:44.954Z,39.9
2018-04-02T10:40:35.639Z,39.8
2018-04-02T10:41:25.767Z,39.7
2018-04-02T10:42:15.351Z,39.8
2018-04-02T10:43:05.632Z,40.1
2018-04-02T10:43:55.873Z,40.4
2018-04-02T10:44:45.828Z,40.4
2018-04-02T10:45:34.514Z,40.2
2018-04-02T10:46:26.243Z,40
2018-04-02T10:47:15.619Z,39.9
2018-04-02T10:48:06.298Z,39.6
2018-04-02T10:48:56.109Z,38.5
2018-04-02T10:49:45.411Z,37.1
2018-04-02T10:50:35.859Z,36.4
2018-04-02T10:51:26.461Z,35.6
2018-04-02T10:52:16.661Z,34.7
2018-04-02T10:53:06.443Z,33.8
2018-04-02T10:53:56.328Z,32.8
2018-04-02T10:54:46.478Z,31.8
2018-04-02T10:55:35.982Z,31.3
2018-04-02T10:56:26.678Z,31.1
2018-04-02T10:57:16.081Z,30.9
2018-04-02T10:58:05.637Z,30.8
2018-04-02T10:58:57.072Z,30.8
2018-04-02T10:59:47.611Z,30.6
2018-04-02T11:00:36.105Z,30.6
2018-04-02T11:01:27.073Z,30.6
2018-04-02T11:02:17.060Z,30.6
2018-04-02T11:03:07.208Z,30.7
2018-04-02T11:03:57.715Z,30.7
2018-04-02T11:04:47.615Z,30.8
2018-04-02T11:05:37.566Z,30.8
2018-04-02T11:06:27.073Z,30.8
2018-04-02T11:07:17.199Z,30.8